DAL7892 KBOS-KJFK
Flight info
| Callsign | DAL7892 |
|---|---|
| Flight time | 0h 41m |
| Altitude | 22000 |
| Route | SSOXS7 SSOXS BUZRD SEY PARCH4 |
| Aircraft | B738/M-SDE2E3FGHIRWXY/LB1 |
Departure
| Time | 2026-05-08 01:53 |
|---|---|
| Airport | Boston Logan International Airport (KBOS) |
Arrival
| Time | 2026-05-08 02:34 |
|---|---|
| Airport | John F. Kennedy International Airport (KJFK) |
| Time | Latitude | Longitude | Altitude | Speed | Heading |
|---|---|---|---|---|---|
| 2026-05-08 01:23 | 42.36929 | -71.01733 | 25 ft | 0 kts | 316° |
| 2026-05-08 01:37 | 42.36928 | -71.01730 | 25 ft | 1 kts | 316° |
| 2026-05-08 01:38 | 42.36915 | -71.01715 | 28 ft | 2 kts | 317° |
| 2026-05-08 01:38 | 42.36900 | -71.01699 | 25 ft | 3 kts | 335° |
| 2026-05-08 01:38 | 42.36882 | -71.01692 | 25 ft | 3 kts | 3° |
| 2026-05-08 01:38 | 42.36862 | -71.01697 | 27 ft | 3 kts | 25° |
| 2026-05-08 01:39 | 42.36848 | -71.01707 | 29 ft | 1 kts | 32° |
| 2026-05-08 01:39 | 42.36844 | -71.01711 | 28 ft | 0 kts | 32° |
| 2026-05-08 01:41 | 42.36850 | -71.01705 | 28 ft | 4 kts | 32° |
| 2026-05-08 01:42 | 42.36908 | -71.01657 | 27 ft | 15 kts | 32° |
| 2026-05-08 01:42 | 42.36979 | -71.01590 | 26 ft | 9 kts | 52° |
| 2026-05-08 01:42 | 42.36968 | -71.01512 | 26 ft | 9 kts | 128° |
| 2026-05-08 01:42 | 42.36926 | -71.01451 | 27 ft | 9 kts | 134° |
| 2026-05-08 01:43 | 42.36884 | -71.01395 | 25 ft | 9 kts | 135° |
| 2026-05-08 01:43 | 42.36832 | -71.01326 | 29 ft | 13 kts | 135° |
| 2026-05-08 01:43 | 42.36743 | -71.01238 | 27 ft | 18 kts | 171° |
| 2026-05-08 01:43 | 42.36623 | -71.01276 | 27 ft | 18 kts | 195° |
| 2026-05-08 01:44 | 42.36512 | -71.01339 | 29 ft | 17 kts | 206° |
| 2026-05-08 01:44 | 42.36417 | -71.01393 | 26 ft | 10 kts | 197° |
| 2026-05-08 01:44 | 42.36366 | -71.01381 | 25 ft | 8 kts | 126° |
| 2026-05-08 01:44 | 42.36339 | -71.01320 | 26 ft | 7 kts | 121° |
| 2026-05-08 01:45 | 42.36312 | -71.01263 | 27 ft | 7 kts | 123° |
| 2026-05-08 01:45 | 42.36285 | -71.01208 | 24 ft | 7 kts | 124° |
| 2026-05-08 01:45 | 42.36262 | -71.01151 | 27 ft | 7 kts | 114° |
| 2026-05-08 01:45 | 42.36243 | -71.01093 | 24 ft | 7 kts | 114° |
| 2026-05-08 01:46 | 42.36220 | -71.01026 | 27 ft | 11 kts | 116° |
| 2026-05-08 01:46 | 42.36172 | -71.00885 | 26 ft | 21 kts | 113° |
| 2026-05-08 01:46 | 42.36114 | -71.00694 | 25 ft | 22 kts | 109° |
| 2026-05-08 01:46 | 42.36065 | -71.00501 | 26 ft | 21 kts | 109° |
| 2026-05-08 01:47 | 42.36019 | -71.00317 | 26 ft | 21 kts | 109° |
| 2026-05-08 01:47 | 42.35972 | -71.00134 | 28 ft | 20 kts | 112° |
| 2026-05-08 01:47 | 42.35887 | -70.99992 | 24 ft | 19 kts | 135° |
| 2026-05-08 01:48 | 42.35700 | -70.99741 | 24 ft | 18 kts | 135° |
| 2026-05-08 01:48 | 42.35612 | -70.99622 | 24 ft | 18 kts | 135° |
| 2026-05-08 01:48 | 42.35527 | -70.99508 | 28 ft | 17 kts | 135° |
| 2026-05-08 01:48 | 42.35490 | -70.99397 | 24 ft | 5 kts | 79° |
| 2026-05-08 01:49 | 42.35490 | -70.99396 | 24 ft | 0 kts | 79° |
| 2026-05-08 01:50 | 42.35490 | -70.99395 | 24 ft | 0 kts | 79° |
| 2026-05-08 01:50 | 42.35496 | -70.99357 | 24 ft | 9 kts | 79° |
| 2026-05-08 01:50 | 42.35512 | -70.99283 | 24 ft | 5 kts | 70° |
| 2026-05-08 01:50 | 42.35545 | -70.99278 | 24 ft | 2 kts | 325° |
| 2026-05-08 01:51 | 42.35549 | -70.99282 | 24 ft | 0 kts | 318° |
| 2026-05-08 01:52 | 42.35668 | -70.99437 | 24 ft | 60 kts | 315° |
| 2026-05-08 01:52 | 42.36147 | -71.00079 | 22 ft | 131 kts | 315° |
| 2026-05-08 01:52 | 42.36903 | -71.01133 | 262 ft | 168 kts | 313° |
| 2026-05-08 01:53 | 42.37657 | -71.02201 | 1428 ft | 149 kts | 313° |
| 2026-05-08 01:53 | 42.38404 | -71.03211 | 2229 ft | 163 kts | 312° |
| 2026-05-08 01:53 | 42.39093 | -71.04619 | 2540 ft | 195 kts | 298° |
| 2026-05-08 01:53 | 42.39794 | -71.06323 | 2896 ft | 215 kts | 300° |
| 2026-05-08 01:54 | 42.40438 | -71.08186 | 3472 ft | 225 kts | 284° |
| 2026-05-08 01:54 | 42.40480 | -71.10317 | 4159 ft | 230 kts | 264° |
| 2026-05-08 01:54 | 42.39953 | -71.12392 | 4826 ft | 240 kts | 242° |
| 2026-05-08 01:54 | 42.38982 | -71.14322 | 5305 ft | 257 kts | 237° |
| 2026-05-08 01:55 | 42.37919 | -71.16327 | 6002 ft | 267 kts | 237° |
| 2026-05-08 01:55 | 42.36797 | -71.18315 | 6989 ft | 268 kts | 227° |
| 2026-05-08 01:55 | 42.35187 | -71.19615 | 7957 ft | 276 kts | 199° |
| 2026-05-08 01:55 | 42.33251 | -71.19752 | 8913 ft | 286 kts | 173° |
| 2026-05-08 01:56 | 42.31317 | -71.18947 | 9819 ft | 294 kts | 163° |
| 2026-05-08 01:56 | 42.29374 | -71.17958 | 10497 ft | 305 kts | 163° |
| 2026-05-08 01:56 | 42.27304 | -71.16913 | 10738 ft | 331 kts | 164° |
| 2026-05-08 01:56 | 42.25139 | -71.15641 | 10897 ft | 361 kts | 151° |
| 2026-05-08 01:57 | 42.23119 | -71.13405 | 11108 ft | 387 kts | 141° |
| 2026-05-08 01:57 | 42.21097 | -71.10906 | 11594 ft | 399 kts | 141° |
| 2026-05-08 01:57 | 42.19009 | -71.08386 | 12242 ft | 405 kts | 143° |
| 2026-05-08 01:57 | 42.16876 | -71.05876 | 12935 ft | 409 kts | 144° |
| 2026-05-08 01:58 | 42.14707 | -71.03377 | 13690 ft | 411 kts | 146° |
| 2026-05-08 01:58 | 42.12417 | -71.01078 | 14360 ft | 410 kts | 151° |
| 2026-05-08 01:58 | 42.10055 | -70.98916 | 15078 ft | 411 kts | 153° |
| 2026-05-08 01:58 | 42.07673 | -70.96779 | 15810 ft | 412 kts | 154° |
| 2026-05-08 01:59 | 42.05292 | -70.94629 | 16513 ft | 414 kts | 154° |
| 2026-05-08 01:59 | 42.02903 | -70.92443 | 17183 ft | 416 kts | 154° |
| 2026-05-08 01:59 | 42.00512 | -70.90232 | 17819 ft | 419 kts | 154° |
| 2026-05-08 01:59 | 41.98106 | -70.87994 | 18381 ft | 421 kts | 155° |
| 2026-05-08 02:00 | 41.95682 | -70.85736 | 18815 ft | 427 kts | 155° |
| 2026-05-08 02:00 | 41.93225 | -70.83448 | 19245 ft | 432 kts | 155° |
| 2026-05-08 02:00 | 41.90750 | -70.81145 | 19751 ft | 435 kts | 155° |
| 2026-05-08 02:00 | 41.88247 | -70.78841 | 20244 ft | 435 kts | 157° |
| 2026-05-08 02:01 | 41.85547 | -70.77252 | 20655 ft | 415 kts | 176° |
| 2026-05-08 02:01 | 41.82772 | -70.76993 | 21131 ft | 400 kts | 192° |
| 2026-05-08 02:01 | 41.80066 | -70.77605 | 21592 ft | 392 kts | 203° |
| 2026-05-08 02:01 | 41.77582 | -70.79028 | 21813 ft | 388 kts | 213° |
| 2026-05-08 02:02 | 41.75225 | -70.80798 | 21837 ft | 390 kts | 215° |
| 2026-05-08 02:02 | 41.72865 | -70.82634 | 21852 ft | 394 kts | 215° |
| 2026-05-08 02:02 | 41.70495 | -70.84470 | 21850 ft | 393 kts | 214° |
| 2026-05-08 02:02 | 41.68119 | -70.86284 | 21848 ft | 393 kts | 214° |
| 2026-05-08 02:03 | 41.65745 | -70.88076 | 21888 ft | 392 kts | 214° |
| 2026-05-08 02:03 | 41.63365 | -70.89859 | 21861 ft | 392 kts | 214° |
| 2026-05-08 02:03 | 41.60988 | -70.91635 | 21833 ft | 391 kts | 214° |
| 2026-05-08 02:03 | 41.58613 | -70.93405 | 21839 ft | 390 kts | 214° |
| 2026-05-08 02:04 | 41.56287 | -70.95267 | 21842 ft | 387 kts | 219° |
| 2026-05-08 02:04 | 41.54192 | -70.97489 | 21851 ft | 384 kts | 225° |
| 2026-05-08 02:04 | 41.52316 | -71.00016 | 21843 ft | 382 kts | 232° |
| 2026-05-08 02:04 | 41.50639 | -71.02766 | 21851 ft | 383 kts | 232° |
| 2026-05-08 02:05 | 41.48958 | -71.05530 | 21842 ft | 384 kts | 232° |
| 2026-05-08 02:05 | 41.47269 | -71.08296 | 21835 ft | 385 kts | 232° |
| 2026-05-08 02:05 | 41.45575 | -71.11060 | 21836 ft | 385 kts | 232° |
| 2026-05-08 02:05 | 41.43877 | -71.13822 | 21804 ft | 386 kts | 232° |
| 2026-05-08 02:06 | 41.42198 | -71.16547 | 21835 ft | 386 kts | 232° |
| 2026-05-08 02:06 | 41.40494 | -71.19310 | 21834 ft | 386 kts | 232° |
| 2026-05-08 02:06 | 41.38788 | -71.22071 | 21840 ft | 386 kts | 232° |
| 2026-05-08 02:06 | 41.37077 | -71.24837 | 21843 ft | 387 kts | 232° |
| 2026-05-08 02:07 | 41.35367 | -71.27600 | 21852 ft | 387 kts | 232° |
| 2026-05-08 02:07 | 41.33654 | -71.30364 | 21857 ft | 387 kts | 232° |
| 2026-05-08 02:07 | 41.31941 | -71.33126 | 21862 ft | 387 kts | 232° |
| 2026-05-08 02:07 | 41.30229 | -71.35885 | 21866 ft | 387 kts | 232° |
| 2026-05-08 02:08 | 41.28516 | -71.38643 | 21869 ft | 386 kts | 232° |
| 2026-05-08 02:08 | 41.26804 | -71.41395 | 21872 ft | 386 kts | 232° |
| 2026-05-08 02:08 | 41.25094 | -71.44144 | 21874 ft | 386 kts | 232° |
| 2026-05-08 02:08 | 41.23382 | -71.46893 | 21878 ft | 386 kts | 232° |
| 2026-05-08 02:09 | 41.21671 | -71.49639 | 21880 ft | 385 kts | 232° |
| 2026-05-08 02:09 | 41.19959 | -71.52382 | 21880 ft | 385 kts | 232° |
| 2026-05-08 02:09 | 41.18257 | -71.55129 | 21879 ft | 385 kts | 234° |
| 2026-05-08 02:09 | 41.16912 | -71.58184 | 21892 ft | 384 kts | 246° |
| 2026-05-08 02:10 | 41.16124 | -71.61570 | 21885 ft | 386 kts | 256° |
| 2026-05-08 02:10 | 41.15671 | -71.65080 | 21877 ft | 386 kts | 258° |
| 2026-05-08 02:10 | 41.15265 | -71.68607 | 21874 ft | 386 kts | 258° |
| 2026-05-08 02:10 | 41.14865 | -71.72126 | 21874 ft | 385 kts | 258° |
| 2026-05-08 02:11 | 41.14457 | -71.75637 | 21848 ft | 385 kts | 258° |
| 2026-05-08 02:11 | 41.14039 | -71.79138 | 21897 ft | 384 kts | 258° |
| 2026-05-08 02:11 | 41.13612 | -71.82642 | 21908 ft | 385 kts | 258° |
| 2026-05-08 02:11 | 41.13178 | -71.86153 | 21907 ft | 385 kts | 258° |
| 2026-05-08 02:12 | 41.12748 | -71.89607 | 21908 ft | 386 kts | 258° |
| 2026-05-08 02:12 | 41.12310 | -71.93114 | 21922 ft | 386 kts | 257° |
| 2026-05-08 02:12 | 41.11869 | -71.96631 | 21914 ft | 386 kts | 257° |
| 2026-05-08 02:12 | 41.11434 | -72.00099 | 21908 ft | 387 kts | 257° |
| 2026-05-08 02:13 | 41.10999 | -72.03556 | 21907 ft | 387 kts | 257° |
| 2026-05-08 02:13 | 41.10557 | -72.07067 | 21904 ft | 386 kts | 257° |
| 2026-05-08 02:13 | 41.10112 | -72.10578 | 21899 ft | 386 kts | 257° |
| 2026-05-08 02:13 | 41.09566 | -72.14055 | 21896 ft | 384 kts | 252° |
| 2026-05-08 02:14 | 41.08785 | -72.17435 | 21898 ft | 383 kts | 250° |
| 2026-05-08 02:14 | 41.07919 | -72.20780 | 21895 ft | 383 kts | 249° |
| 2026-05-08 02:14 | 41.07039 | -72.24114 | 21896 ft | 383 kts | 249° |
| 2026-05-08 02:14 | 41.06185 | -72.27388 | 21906 ft | 368 kts | 249° |
| 2026-05-08 02:15 | 41.05371 | -72.30561 | 21460 ft | 358 kts | 250° |
| 2026-05-08 02:15 | 41.04585 | -72.33662 | 20920 ft | 352 kts | 250° |
| 2026-05-08 02:15 | 41.03819 | -72.36713 | 20328 ft | 347 kts | 250° |
| 2026-05-08 02:15 | 41.03066 | -72.39722 | 19745 ft | 342 kts | 250° |
| 2026-05-08 02:16 | 41.02323 | -72.42692 | 19183 ft | 338 kts | 250° |
| 2026-05-08 02:16 | 41.01586 | -72.45638 | 18615 ft | 335 kts | 250° |
| 2026-05-08 02:16 | 41.00856 | -72.48555 | 18028 ft | 332 kts | 250° |
| 2026-05-08 02:16 | 41.00131 | -72.51447 | 17412 ft | 330 kts | 250° |
| 2026-05-08 02:17 | 40.99654 | -72.53347 | 17019 ft | 328 kts | 250° |
| 2026-05-08 02:17 | 40.98942 | -72.56184 | 16549 ft | 322 kts | 250° |
| 2026-05-08 02:17 | 40.98237 | -72.58988 | 16026 ft | 321 kts | 250° |
| 2026-05-08 02:17 | 40.97530 | -72.61799 | 15304 ft | 325 kts | 251° |
| 2026-05-08 02:18 | 40.96816 | -72.64632 | 14765 ft | 323 kts | 251° |
| 2026-05-08 02:18 | 40.96110 | -72.67435 | 14279 ft | 319 kts | 252° |
| 2026-05-08 02:18 | 40.95407 | -72.70221 | 13721 ft | 320 kts | 252° |
| 2026-05-08 02:18 | 40.94705 | -72.72999 | 13233 ft | 319 kts | 252° |
| 2026-05-08 02:19 | 40.93999 | -72.75781 | 12703 ft | 320 kts | 252° |
| 2026-05-08 02:19 | 40.93024 | -72.78486 | 12144 ft | 333 kts | 239° |
| 2026-05-08 02:19 | 40.91598 | -72.80940 | 11818 ft | 338 kts | 231° |
| 2026-05-08 02:19 | 40.89850 | -72.82986 | 11504 ft | 333 kts | 220° |
| 2026-05-08 02:20 | 40.87997 | -72.84750 | 11240 ft | 323 kts | 220° |
| 2026-05-08 02:20 | 40.86188 | -72.86447 | 10986 ft | 314 kts | 220° |
| 2026-05-08 02:20 | 40.84430 | -72.88100 | 10738 ft | 306 kts | 220° |
| 2026-05-08 02:20 | 40.82722 | -72.89718 | 10498 ft | 299 kts | 220° |
| 2026-05-08 02:21 | 40.81051 | -72.91310 | 10258 ft | 293 kts | 220° |
| 2026-05-08 02:21 | 40.79419 | -72.92869 | 10028 ft | 287 kts | 220° |
| 2026-05-08 02:21 | 40.77834 | -72.94384 | 9950 ft | 275 kts | 220° |
| 2026-05-08 02:21 | 40.76316 | -72.95835 | 9734 ft | 269 kts | 220° |
| 2026-05-08 02:22 | 40.74797 | -72.97290 | 9392 ft | 269 kts | 220° |
| 2026-05-08 02:22 | 40.73288 | -72.98732 | 9127 ft | 265 kts | 220° |
| 2026-05-08 02:22 | 40.71862 | -73.00092 | 8909 ft | 261 kts | 220° |
| 2026-05-08 02:22 | 40.70483 | -73.01600 | 8668 ft | 254 kts | 236° |
| 2026-05-08 02:23 | 40.69777 | -73.03658 | 8511 ft | 246 kts | 262° |
| 2026-05-08 02:23 | 40.69772 | -73.05898 | 8314 ft | 245 kts | 281° |
| 2026-05-08 02:23 | 40.70366 | -73.08003 | 8125 ft | 247 kts | 296° |
| 2026-05-08 02:23 | 40.71158 | -73.10020 | 7910 ft | 249 kts | 297° |
| 2026-05-08 02:24 | 40.71967 | -73.12044 | 7704 ft | 251 kts | 297° |
| 2026-05-08 02:24 | 40.72781 | -73.14083 | 7517 ft | 252 kts | 297° |
| 2026-05-08 02:24 | 40.73597 | -73.16137 | 7313 ft | 253 kts | 297° |
| 2026-05-08 02:24 | 40.74409 | -73.18193 | 7105 ft | 251 kts | 297° |
| 2026-05-08 02:25 | 40.75207 | -73.20222 | 6907 ft | 247 kts | 296° |
| 2026-05-08 02:25 | 40.75993 | -73.22221 | 6706 ft | 244 kts | 296° |
| 2026-05-08 02:25 | 40.76771 | -73.24207 | 6513 ft | 244 kts | 296° |
| 2026-05-08 02:25 | 40.77547 | -73.26192 | 6324 ft | 244 kts | 296° |
| 2026-05-08 02:26 | 40.78324 | -73.28181 | 6108 ft | 244 kts | 296° |
| 2026-05-08 02:26 | 40.79058 | -73.30199 | 5886 ft | 244 kts | 287° |
| 2026-05-08 02:26 | 40.79240 | -73.32366 | 5705 ft | 239 kts | 270° |
| 2026-05-08 02:26 | 40.79267 | -73.34543 | 5498 ft | 235 kts | 271° |
| 2026-05-08 02:27 | 40.79298 | -73.36677 | 5305 ft | 230 kts | 271° |
| 2026-05-08 02:27 | 40.79330 | -73.38767 | 5125 ft | 226 kts | 271° |
| 2026-05-08 02:27 | 40.79363 | -73.40822 | 4944 ft | 222 kts | 271° |
| 2026-05-08 02:27 | 40.79395 | -73.42836 | 4765 ft | 218 kts | 271° |
| 2026-05-08 02:28 | 40.79426 | -73.44810 | 4592 ft | 213 kts | 271° |
| 2026-05-08 02:28 | 40.79457 | -73.46751 | 4415 ft | 209 kts | 271° |
| 2026-05-08 02:28 | 40.79488 | -73.48646 | 4245 ft | 205 kts | 272° |
| 2026-05-08 02:28 | 40.79518 | -73.50519 | 4074 ft | 203 kts | 272° |
| 2026-05-08 02:29 | 40.79548 | -73.52382 | 3932 ft | 204 kts | 272° |
| 2026-05-08 02:29 | 40.79578 | -73.54264 | 3754 ft | 206 kts | 272° |
| 2026-05-08 02:29 | 40.79608 | -73.56155 | 3605 ft | 207 kts | 272° |
| 2026-05-08 02:29 | 40.79638 | -73.58070 | 3449 ft | 210 kts | 273° |
| 2026-05-08 02:30 | 40.79668 | -73.60007 | 3274 ft | 212 kts | 273° |
| 2026-05-08 02:30 | 40.79691 | -73.61948 | 3094 ft | 211 kts | 270° |
| 2026-05-08 02:30 | 40.79255 | -73.63771 | 2865 ft | 214 kts | 230° |
| 2026-05-08 02:30 | 40.78081 | -73.64968 | 2728 ft | 216 kts | 211° |
| 2026-05-08 02:31 | 40.76757 | -73.65944 | 2522 ft | 218 kts | 210° |
| 2026-05-08 02:31 | 40.75471 | -73.66930 | 2314 ft | 214 kts | 211° |
| 2026-05-08 02:31 | 40.74211 | -73.67916 | 2106 ft | 207 kts | 211° |
| 2026-05-08 02:31 | 40.72986 | -73.68874 | 1896 ft | 196 kts | 211° |
| 2026-05-08 02:32 | 40.71860 | -73.69754 | 1722 ft | 181 kts | 211° |
| 2026-05-08 02:32 | 40.70816 | -73.70569 | 1514 ft | 166 kts | 212° |
| 2026-05-08 02:32 | 40.69859 | -73.71317 | 1277 ft | 153 kts | 211° |
| 2026-05-08 02:32 | 40.68971 | -73.72011 | 1076 ft | 148 kts | 211° |
| 2026-05-08 02:33 | 40.68079 | -73.72712 | 860 ft | 152 kts | 211° |
| 2026-05-08 02:33 | 40.67185 | -73.73411 | 723 ft | 144 kts | 210° |
| 2026-05-08 02:33 | 40.66325 | -73.74073 | 514 ft | 143 kts | 210° |
| 2026-05-08 02:33 | 40.65470 | -73.74747 | 316 ft | 143 kts | 209° |
| 2026-05-08 02:34 | 40.64631 | -73.75405 | 96 ft | 139 kts | 210° |
| 2026-05-08 02:34 | 40.63901 | -73.75974 | 21 ft | 77 kts | 211° |
| 2026-05-08 02:34 | 40.63732 | -73.76107 | 20 ft | 0 kts | 211° |
| 2026-05-08 02:34 | 40.63637 | -73.76181 | 21 ft | 29 kts | 211° |
| 2026-05-08 02:35 | 40.63455 | -73.76324 | 25 ft | 32 kts | 211° |
| 2026-05-08 02:35 | 40.63284 | -73.76524 | 21 ft | 33 kts | 232° |
| 2026-05-08 02:35 | 40.63242 | -73.76715 | 19 ft | 17 kts | 287° |
| 2026-05-08 02:35 | 40.63302 | -73.76846 | 19 ft | 16 kts | 302° |
| 2026-05-08 02:36 | 40.63355 | -73.76975 | 19 ft | 16 kts | 301° |
| 2026-05-08 02:36 | 40.63408 | -73.77089 | 19 ft | 15 kts | 301° |